TAF Text Data
IDs:
Format:
Raw Decoded Include METAR

Data at: 2102 UTC 26 May 2019

METAR for:KTOB (Dodge Center Arpt, MN, US)
Text:KTOB 262056Z AUTO 00000KT 10SM CLR 22/08 A3007 RMK AO2
Temperature: 22.0°C ( 72°F)
Dewpoint: 8.0°C ( 46°F) [RH = 41%]
Pressure (altimeter):30.07 inches Hg (1018.4 mb)
Winds:calm
Visibility:10 or more sm (16+ km)
Ceiling:at least 12,000 feet AGL
Clouds:sky clear below 12,000 feet AGL
QC Flag:automated observation with no human augmentation

TAF for:KTOB (Dodge Center Arpt, MN, US)
Text:No data found